Time;durP1;ratioP1;P1;durP2;ratioP2;P2;SDS_P1;SDS_P2;PMS_P1;PMS_P2;Temp;Humidity;BMP_temperature;BMP_pressure;BME280_temperature;BME280_humidity;BME280_pressure;Samples;Min_cycle;Max_cycle;Signal;HPM_P1;HPM_P2
2023/07/16 00:00:28;;;;;;;;;7.00;5.00;;;;;21.99;40.66;100802.00;5079327;28;45226;-68
2023/07/16 00:02:54;;;;;;;;;6.00;5.00;;;;;22.16;40.43;100834.84;5078967;27;46188;-70
2023/07/16 00:05:19;;;;;;;;;8.33;6.33;;;;;21.93;41.16;100802.88;5078931;28;45501;-69
2023/07/16 00:07:45;;;;;;;;;6.67;4.33;;;;;21.99;41.06;100830.94;5079046;28;45328;-71
2023/07/16 00:10:10;;;;;;;;;4.67;4.33;;;;;22.02;41.05;100838.63;5079097;28;45431;-72
2023/07/16 00:12:35;;;;;;;;;7.00;3.00;;;;;21.92;41.72;100824.75;5078602;28;45443;-71
2023/07/16 00:15:01;;;;;;;;;5.33;5.33;;;;;22.00;41.74;100832.59;5078780;28;45474;-72
2023/07/16 00:17:26;;;;;;;;;6.67;6.33;;;;;21.68;41.71;100801.97;5079025;28;45403;-72
2023/07/16 00:19:51;;;;;;;;;6.67;5.33;;;;;21.85;41.91;100831.03;5077650;28;45493;-73
2023/07/16 00:22:16;;;;;;;;;7.00;5.33;;;;;21.71;42.13;100813.19;5078638;27;46545;-71
2023/07/16 00:24:42;;;;;;;;;5.67;5.67;;;;;21.85;42.28;100843.72;5078634;27;45296;-74
2023/07/16 00:27:10;;;;;;;;;7.67;5.33;;;;;21.79;42.59;100842.69;5078554;28;46596;-72
2023/07/16 00:29:35;;;;;;;;;3.00;3.00;;;;;21.72;42.52;100830.25;5079081;27;45384;-74
2023/07/16 00:32:01;;;;;;;;;6.00;5.00;;;;;21.65;42.85;100835.72;5060024;28;50389;-72
2023/07/16 00:34:26;;;;;;;;;7.00;4.67;;;;;21.73;42.78;100843.56;5078650;28;45386;-73
2023/07/16 00:36:52;;;;;;;;;6.00;3.67;;;;;21.71;43.10;100847.53;5078601;27;45307;-72
2023/07/16 00:39:17;;;;;;;;;5.67;5.00;;;;;21.34;43.28;100798.56;5060471;28;45272;-72
2023/07/16 00:41:42;;;;;;;;;7.33;5.67;;;;;21.51;43.29;100828.69;5077755;27;45979;-72
2023/07/16 00:44:08;;;;;;;;;3.33;3.33;;;;;21.66;43.49;100858.19;5078201;28;45373;-73
2023/07/16 00:46:33;;;;;;;;;6.00;6.00;;;;;21.61;43.61;100857.97;5078636;28;45317;-71
2023/07/16 00:48:58;;;;;;;;;6.67;5.33;;;;;21.58;43.73;100863.81;5077817;28;45621;-73
2023/07/16 00:51:25;;;;;;;;;4.67;4.67;;;;;21.58;43.64;100855.69;5078288;28;46541;-72
2023/07/16 00:53:50;;;;;;;;;7.00;7.00;;;;;21.58;43.73;100859.22;5078555;27;45483;-73
2023/07/16 00:56:17;;;;;;;;;6.00;6.00;;;;;21.53;44.00;100859.03;5078314;28;45272;-71
2023/07/16 00:58:43;;;;;;;;;10.67;4.67;;;;;21.30;43.76;100829.78;5060614;28;45179;-70
2023/07/16 01:01:08;;;;;;;;;8.67;5.33;;;;;21.33;44.31;100825.81;5077070;28;45491;-71
2023/07/16 01:03:33;;;;;;;;;9.67;7.67;;;;;21.40;44.47;100849.09;5078211;28;45294;-72
2023/07/16 01:06:08;;;;;;;;;8.67;6.00;;;;;21.48;44.16;100858.88;5078262;27;45716;-73
2023/07/16 01:08:49;;;;;;;;;3.67;3.67;;;;;21.45;44.42;100856.59;5060278;28;45524;-73
2023/07/16 01:11:15;;;;;;;;;6.00;6.00;;;;;21.48;44.49;100869.69;5077841;28;45783;-71
2023/07/16 01:13:41;;;;;;;;;5.33;5.33;;;;;21.47;44.57;100870.72;5078972;28;45430;-72
2023/07/16 01:16:17;;;;;;;;;5.00;5.00;;;;;21.37;44.71;100865.75;5060247;28;45353;-71
2023/07/16 01:18:42;;;;;;;;;5.33;5.33;;;;;21.32;44.68;100865.56;5078264;28;45557;-72
2023/07/16 01:21:08;;;;;;;;;8.00;6.33;;;;;21.34;44.79;100882.41;5077874;28;46890;-74
2023/07/16 01:23:56;;;;;;;;;6.00;6.00;;;;;21.35;44.76;100885.94;5060095;28;46401;-71
2023/07/16 01:26:50;;;;;;;;;13.00;10.67;;;;;21.31;44.87;100885.53;5079562;28;45249;-73
2023/07/16 01:29:29;;;;;;;;;6.00;5.00;;;;;21.17;45.18;100870.31;5078326;28;45245;-73
2023/07/16 01:31:56;;;;;;;;;7.33;5.33;;;;;21.17;45.35;100879.25;5077808;28;45649;-72
2023/07/16 01:34:24;;;;;;;;;10.00;8.67;;;;;21.14;45.66;100884.28;5079095;28;45296;-75
2023/07/16 01:36:50;;;;;;;;;7.00;6.67;;;;;21.13;45.55;100890.72;5077824;28;45307;-75
2023/07/16 01:39:16;;;;;;;;;8.00;6.67;;;;;21.10;45.53;100885.72;5078007;28;45431;-70
2023/07/16 01:41:41;;;;;;;;;8.00;5.33;;;;;21.08;45.64;100893.22;5078379;28;46005;-72
2023/07/16 01:44:07;;;;;;;;;6.67;6.33;;;;;21.02;45.87;100873.25;5077757;28;45431;-74
2023/07/16 01:46:32;;;;;;;;;9.67;6.00;;;;;20.87;46.07;100859.97;5077875;28;45236;-71
2023/07/16 01:48:58;;;;;;;;;11.00;8.33;;;;;20.89;45.90;100868.69;5059693;28;45447;-71
2023/07/16 01:51:23;;;;;;;;;5.67;5.67;;;;;20.94;45.62;100871.59;5077494;28;46800;-72
2023/07/16 01:53:48;;;;;;;;;6.33;6.33;;;;;21.00;45.94;100890.72;5076642;28;45976;-73
2023/07/16 01:56:14;;;;;;;;;7.67;6.33;;;;;20.88;46.16;100874.31;5059381;28;45281;-73
2023/07/16 01:58:39;;;;;;;;;6.67;6.67;;;;;20.95;45.98;100892.19;5077601;28;45369;-72
2023/07/16 02:01:04;;;;;;;;;8.00;6.33;;;;;20.98;46.05;100895.50;5077312;28;45741;-75
2023/07/16 02:03:30;;;;;;;;;8.33;7.33;;;;;20.92;46.42;100889.91;5077535;28;45310;-73
2023/07/16 02:05:56;;;;;;;;;12.67;8.33;;;;;20.79;46.56;100870.97;5077474;28;45286;-72
2023/07/16 02:08:21;;;;;;;;;6.33;6.33;;;;;20.86;46.88;100893.44;5059540;28;45506;-72
2023/07/16 02:10:50;;;;;;;;;7.00;6.67;;;;;20.85;46.87;100901.75;5077941;28;47036;-73
2023/07/16 02:13:15;;;;;;;;;6.33;5.33;;;;;20.83;46.95;100899.25;5081053;27;45508;-74
2023/07/16 02:15:41;;;;;;;;;8.67;6.00;;;;;20.81;47.03;100897.78;5063136;28;45309;-74
2023/07/16 02:18:07;;;;;;;;;6.67;4.67;;;;;20.54;47.21;100861.81;5081023;27;45229;-74
2023/07/16 02:20:32;;;;;;;;;10.00;10.00;;;;;20.77;46.97;100894.66;5062260;28;49081;-72
2023/07/16 02:22:58;;;;;;;;;5.67;5.67;;;;;20.81;47.09;100904.03;5063426;28;45404;-72
2023/07/16 02:25:23;;;;;;;;;9.67;7.00;;;;;20.70;47.36;100885.75;5082444;27;45308;-72
2023/07/16 02:27:48;;;;;;;;;8.67;7.33;;;;;20.75;47.25;100910.25;5079791;28;45759;-73
2023/07/16 02:30:17;;;;;;;;;6.00;6.00;;;;;20.16;47.17;100821.84;5062432;28;49250;-76
2023/07/16 02:32:42;;;;;;;;;7.33;6.33;;;;;20.66;47.40;100906.09;5080691;27;45257;-72
2023/07/16 02:35:08;;;;;;;;;6.67;6.00;;;;;20.63;47.36;100901.94;5081435;28;45332;-74
2023/07/16 02:37:33;;;;;;;;;6.00;6.00;;;;;20.27;47.44;100850.13;5063672;28;45591;-74
2023/07/16 02:39:59;;;;;;;;;6.00;4.33;;;;;20.62;47.56;100921.91;5080559;27;45346;-72
2023/07/16 02:42:24;;;;;;;;;7.67;7.00;;;;;20.47;47.48;100890.69;5080070;28;45225;-71
2023/07/16 02:44:50;;;;;;;;;12.33;10.67;;;;;20.41;47.65;100894.19;5080678;27;45322;-72
2023/07/16 02:47:15;;;;;;;;;4.67;4.67;;;;;20.52;47.59;100918.75;5062177;28;45576;-73
2023/07/16 02:49:41;;;;;;;;;4.00;4.00;;;;;20.27;47.60;100893.31;5080336;27;46176;-73
2023/07/16 02:52:07;;;;;;;;;6.67;5.33;;;;;20.41;47.97;100913.94;5080240;28;49511;-73
2023/07/16 02:54:32;;;;;;;;;7.00;7.00;;;;;20.27;47.99;100891.47;5080660;28;45313;-71
2023/07/16 02:56:58;;;;;;;;;7.33;5.67;;;;;20.39;48.07;100921.38;5080426;27;45594;-72
2023/07/16 02:59:23;;;;;;;;;5.33;5.33;;;;;20.36;48.44;100927.19;5061817;28;46660;-73
2023/07/16 03:01:49;;;;;;;;;4.33;4.00;;;;;20.33;48.53;100914.09;5080370;28;51209;-75
2023/07/16 03:04:14;;;;;;;;;7.67;6.67;;;;;20.28;48.69;100922.81;5062590;28;45332;-72
2023/07/16 03:06:40;;;;;;;;;8.00;6.00;;;;;20.25;48.93;100933.19;5080562;27;45550;-71
2023/07/16 03:09:05;;;;;;;;;8.67;7.33;;;;;20.08;49.23;100913.81;5080517;28;45278;-72
2023/07/16 03:11:30;;;;;;;;;7.00;5.00;;;;;20.20;49.30;100933.78;5079864;27;45471;-75
2023/07/16 03:13:56;;;;;;;;;6.33;5.00;;;;;20.18;49.28;100933.16;5079951;28;45278;-73
2023/07/16 03:16:21;;;;;;;;;5.00;5.00;;;;;20.03;49.52;100910.91;5080537;28;45486;-72
2023/07/16 03:18:48;;;;;;;;;8.00;8.00;;;;;20.03;49.26;100914.44;5061448;28;46027;-71
2023/07/16 03:21:13;;;;;;;;;6.67;6.00;;;;;20.08;49.58;100927.31;5080532;28;45296;-71
2023/07/16 03:23:39;;;;;;;;;8.00;6.33;;;;;19.98;49.90;100918.75;5079239;27;45516;-74
2023/07/16 03:26:04;;;;;;;;;8.33;7.33;;;;;20.05;49.63;100930.44;5061337;28;45516;-71
2023/07/16 03:28:29;;;;;;;;;9.00;8.00;;;;;20.03;49.85;100929.78;5061440;28;48525;-72
2023/07/16 03:30:55;;;;;;;;;6.33;5.33;;;;;20.00;50.00;100928.31;5079738;28;45513;-73
2023/07/16 03:33:20;;;;;;;;;7.00;6.00;;;;;20.02;50.05;100934.38;5080135;27;45258;-74
2023/07/16 03:35:47;;;;;;;;;5.33;5.00;;;;;19.98;50.13;100945.75;5080152;28;45566;-76
2023/07/16 03:38:13;;;;;;;;;6.33;6.33;;;;;19.97;50.15;100952.16;5079687;28;46548;-74
2023/07/16 03:40:39;;;;;;;;;6.00;5.00;;;;;19.95;50.31;100946.13;5060809;28;45499;-71
2023/07/16 03:43:05;;;;;;;;;5.00;4.33;;;;;19.94;50.28;100949.88;5079557;28;45379;-73
2023/07/16 03:45:30;;;;;;;;;8.00;7.00;;;;;19.90;50.36;100943.22;5079575;27;45510;-72
2023/07/16 03:47:55;;;;;;;;;6.67;6.67;;;;;19.88;50.61;100950.69;5079141;27;46215;-73
2023/07/16 03:50:21;;;;;;;;;8.67;4.33;;;;;19.78;50.37;100944.81;5079665;28;45505;-71
2023/07/16 03:52:47;;;;;;;;;6.67;4.33;;;;;19.90;50.70;100957.53;5079921;28;45347;-72
2023/07/16 03:55:12;;;;;;;;;8.33;7.33;;;;;19.82;50.67;100946.91;5080031;28;45586;-72
2023/07/16 03:57:38;;;;;;;;;6.67;6.67;;;;;19.89;50.73;100963.13;5079880;28;45774;-73
2023/07/16 04:00:07;;;;;;;;;5.00;4.33;;;;;19.80;50.62;100959.75;5079974;28;45343;-73
2023/07/16 04:02:33;;;;;;;;;6.00;5.00;;;;;19.81;50.71;100952.50;5079540;28;45452;-74
2023/07/16 04:04:58;;;;;;;;;6.00;5.00;;;;;19.78;50.72;100961.00;5060862;28;45343;-73
2023/07/16 04:07:23;;;;;;;;;6.00;4.67;;;;;19.74;50.92;100964.09;5078760;27;45527;-73
2023/07/16 04:09:49;;;;;;;;;7.00;6.67;;;;;19.71;51.22;100952.88;5078705;28;56398;-72
2023/07/16 04:12:14;;;;;;;;;7.67;4.67;;;;;19.43;50.87;100920.53;5078859;28;45299;-73
2023/07/16 04:14:39;;;;;;;;;6.33;4.67;;;;;19.41;51.15;100901.81;5079348;28;45482;-73
2023/07/16 04:17:05;;;;;;;;;6.00;6.00;;;;;19.61;51.06;100950.50;5060917;28;48324;-72
2023/07/16 04:19:30;;;;;;;;;5.33;5.00;;;;;19.64;51.16;100950.16;5060545;28;45300;-74
2023/07/16 04:21:55;;;;;;;;;6.33;5.00;;;;;19.41;51.26;100917.16;5079016;28;45536;-75
2023/07/16 04:24:21;;;;;;;;;8.00;5.00;;;;;19.70;51.68;100965.53;5078877;28;52917;-72
2023/07/16 04:26:46;;;;;;;;;7.67;6.33;;;;;19.30;51.13;100897.00;5079618;28;45967;-73
2023/07/16 04:29:12;;;;;;;;;8.67;7.67;;;;;19.63;51.48;100961.97;5079222;28;45297;-74
2023/07/16 04:31:39;;;;;;;;;5.67;5.67;;;;;19.69;51.61;100977.34;5078870;28;45440;-71
2023/07/16 04:34:05;;;;;;;;;7.67;5.67;;;;;19.57;51.68;100965.44;5078489;28;45339;-73
2023/07/16 04:36:30;;;;;;;;;8.33;6.67;;;;;19.70;51.77;100987.09;5077896;28;45749;-72
2023/07/16 04:38:56;;;;;;;;;6.67;6.67;;;;;19.21;51.91;100910.81;5060157;28;45345;-73
2023/07/16 04:41:22;;;;;;;;;7.33;6.67;;;;;19.19;51.94;100908.31;5078438;28;45340;-73
2023/07/16 04:43:47;;;;;;;;;9.00;6.33;;;;;19.17;51.94;100902.28;5060476;28;45207;-72
2023/07/16 04:46:12;;;;;;;;;5.67;5.67;;;;;19.64;52.15;100987.06;5078313;28;45577;-73
2023/07/16 04:48:38;;;;;;;;;6.00;6.00;;;;;19.62;51.91;100978.31;5078919;28;45242;-73
2023/07/16 04:51:03;;;;;;;;;6.33;6.33;;;;;19.72;51.84;100995.81;5076800;28;54404;-72
2023/07/16 04:53:28;;;;;;;;;6.33;6.00;;;;;19.68;51.92;100997.25;5079103;28;45517;-75
2023/07/16 04:55:54;;;;;;;;;9.33;6.00;;;;;19.78;52.06;101006.84;5078781;28;45567;-74
2023/07/16 04:58:19;;;;;;;;;6.00;6.00;;;;;19.66;52.16;101001.19;5078404;28;45396;-74
2023/07/16 05:00:45;;;;;;;;;8.00;7.00;;;;;19.64;52.00;101004.09;5078127;28;45434;-73
2023/07/16 05:03:10;;;;;;;;;5.00;5.00;;;;;19.56;52.38;101001.53;5078369;28;45505;-73
2023/07/16 05:05:36;;;;;;;;;7.00;6.00;;;;;19.39;52.66;100975.84;5077823;27;46318;-72
2023/07/16 05:08:01;;;;;;;;;6.67;5.33;;;;;19.64;52.74;101022.97;5078028;28;45329;-71
2023/07/16 05:10:29;;;;;;;;;6.67;5.67;;;;;19.70;52.54;101027.56;5078118;28;45548;-73
2023/07/16 05:12:55;;;;;;;;;7.67;6.00;;;;;19.49;52.62;100981.75;5078425;28;45205;-73
2023/07/16 05:15:20;;;;;;;;;9.67;6.00;;;;;19.73;52.47;101013.69;5078495;28;46082;-75
2023/07/16 05:17:45;;;;;;;;;8.33;8.00;;;;;19.56;52.30;100982.66;5078788;27;45342;-73
2023/07/16 05:20:11;;;;;;;;;4.33;4.33;;;;;19.75;52.59;101006.22;5078339;28;45215;-74
2023/07/16 05:22:36;;;;;;;;;11.33;8.00;;;;;19.79;52.79;101019.31;5078502;28;45594;-74
2023/07/16 05:25:02;;;;;;;;;11.00;7.00;;;;;19.69;52.75;101000.78;5077810;27;45828;-73
2023/07/16 05:27:28;;;;;;;;;6.67;6.67;;;;;19.71;52.79;101001.44;5077509;27;45262;-73
2023/07/16 05:29:53;;;;;;;;;7.33;5.67;;;;;19.65;53.02;100989.56;5077857;27;45477;-72
2023/07/16 05:32:19;;;;;;;;;9.67;7.33;;;;;19.88;53.09;101023.53;5077885;28;45526;-72
2023/07/16 05:34:44;;;;;;;;;9.00;7.67;;;;;19.84;52.98;101008.78;5077558;28;46321;-73
2023/07/16 05:37:09;;;;;;;;;8.67;6.67;;;;;19.96;53.08;101036.88;5078087;28;45317;-72
2023/07/16 05:39:35;;;;;;;;;8.67;8.67;;;;;19.91;52.74;101013.19;5076112;27;45348;-71
2023/07/16 05:42:02;;;;;;;;;9.67;7.67;;;;;19.72;52.86;100978.81;5077905;28;45483;-72
2023/07/16 05:44:28;;;;;;;;;10.33;9.33;;;;;19.95;53.13;101019.00;5077638;27;46463;-72
2023/07/16 05:46:53;;;;;;;;;10.33;7.00;;;;;18.61;53.07;100805.25;5077584;28;45348;-74
2023/07/16 05:49:18;;;;;;;;;10.67;6.67;;;;;20.03;53.05;101035.06;5077468;28;45442;-72
2023/07/16 05:51:44;;;;;;;;;8.33;6.67;;;;;20.01;53.19;101031.69;5077866;27;45269;-72
2023/07/16 05:54:09;;;;;;;;;10.33;7.00;;;;;19.72;53.08;100974.25;5076667;28;60423;-71
2023/07/16 05:56:34;;;;;;;;;10.00;7.33;;;;;20.04;53.05;101025.94;5077910;28;45469;-73
2023/07/16 05:59:00;;;;;;;;;9.67;8.33;;;;;20.16;52.82;101045.91;5077479;28;45501;-73
2023/07/16 06:01:25;;;;;;;;;8.00;6.00;;;;;20.19;52.99;101045.50;5059324;28;45351;-72
2023/07/16 06:03:50;;;;;;;;;10.67;9.67;;;;;20.18;53.21;101038.44;5076887;28;46634;-73
2023/07/16 06:06:16;;;;;;;;;10.33;8.33;;;;;20.32;53.38;101044.75;5059040;28;45258;-72
2023/07/16 06:08:41;;;;;;;;;4.67;4.67;;;;;20.55;52.63;101045.28;5059545;28;45243;-72
2023/07/16 06:11:07;;;;;;;;;7.33;7.33;;;;;20.76;51.85;101044.31;5060346;28;45675;-72
2023/07/16 06:13:33;;;;;;;;;7.67;7.67;;;;;20.99;51.32;101040.44;5083174;28;45243;-73
2023/07/16 06:15:58;;;;;;;;;8.67;7.67;;;;;21.18;50.85;101047.72;5081434;28;45477;-74
2023/07/16 06:18:24;;;;;;;;;11.33;8.33;;;;;21.33;50.71;101044.88;5080490;27;45441;-78
2023/07/16 06:20:51;;;;;;;;;8.67;7.00;;;;;21.59;49.75;101052.16;5059031;28;45491;-73
2023/07/16 06:23:17;;;;;;;;;9.00;8.00;;;;;21.68;49.17;101040.09;5076972;28;45784;-71
2023/07/16 06:25:44;;;;;;;;;7.67;6.67;;;;;21.79;49.36;101047.56;5058508;28;45882;-74
2023/07/16 06:28:10;;;;;;;;;13.00;9.33;;;;;22.01;49.33;101062.50;5077063;28;45451;-74
2023/07/16 06:30:37;;;;;;;;;8.67;8.00;;;;;22.16;48.66;101043.34;5077100;28;45557;-72
2023/07/16 06:33:02;;;;;;;;;10.67;9.67;;;;;22.49;48.19;101058.66;5076613;28;46344;-72
2023/07/16 06:35:27;;;;;;;;;8.00;6.33;;;;;22.64;47.92;101057.38;5077118;28;45296;-73
2023/07/16 06:37:53;;;;;;;;;5.33;5.33;;;;;22.96;47.22;101065.56;5077178;28;45403;-72
2023/07/16 06:40:18;;;;;;;;;7.33;7.33;;;;;23.17;46.37;101067.91;5076729;28;50570;-70
2023/07/16 06:42:43;;;;;;;;;13.00;10.67;;;;;23.22;46.25;101046.38;5076668;28;45443;-71
2023/07/16 06:45:09;;;;;;;;;5.00;5.00;;;;;23.44;45.79;101052.28;5058510;28;45592;-72
2023/07/16 06:47:34;;;;;;;;;10.33;7.67;;;;;23.51;45.14;101044.09;5058632;28;45336;-71
2023/07/16 06:50:00;;;;;;;;;7.67;6.67;;;;;23.79;45.03;101060.78;5058876;28;45474;-72
2023/07/16 06:52:27;;;;;;;;;8.67;8.67;;;;;23.93;45.09;101066.91;5058270;28;48381;-73
2023/07/16 06:54:55;;;;;;;;;5.67;5.67;;;;;23.91;45.03;101063.59;5076921;28;45253;-72
2023/07/16 06:57:21;;;;;;;;;6.33;6.00;;;;;23.93;44.21;101045.19;5076672;27;45399;-74
2023/07/16 06:59:46;;;;;;;;;8.00;6.33;;;;;24.11;44.67;101052.53;5062230;28;45482;-72
2023/07/16 07:02:12;;;;;;;;;11.00;8.67;;;;;24.16;43.83;101058.94;5079972;28;45185;-74
2023/07/16 07:04:38;;;;;;;;;7.67;7.33;;;;;24.15;43.80;101051.00;5080239;27;45431;-72
2023/07/16 07:07:03;;;;;;;;;6.33;6.33;;;;;24.37;44.05;101065.84;5062059;28;46716;-72
2023/07/16 07:09:29;;;;;;;;;7.33;5.00;;;;;24.31;43.66;101064.03;5061914;28;45358;-69
2023/07/16 07:11:54;;;;;;;;;7.00;6.67;;;;;24.42;43.66;101071.41;5079704;27;45650;-72
2023/07/16 07:14:19;;;;;;;;;8.33;5.67;;;;;24.35;43.59;101067.94;5080025;27;47961;-71
2023/07/16 07:16:45;;;;;;;;;6.00;6.00;;;;;24.39;43.50;101055.56;5061651;28;45423;-69
2023/07/16 07:19:10;;;;;;;;;9.00;7.00;;;;;24.42;43.33;101065.97;5061482;28;45576;-71
2023/07/16 07:21:36;;;;;;;;;8.33;8.33;;;;;24.43;43.81;101062.22;5061253;28;48110;-72
2023/07/16 07:24:01;;;;;;;;;5.67;5.00;;;;;24.62;43.12;101079.31;5079458;27;45499;-71
2023/07/16 07:26:27;;;;;;;;;6.00;6.00;;;;;24.63;43.15;101066.56;5079309;27;45344;-71
2023/07/16 07:28:53;;;;;;;;;6.67;6.67;;;;;24.56;42.64;101051.16;5079754;27;45472;-71
2023/07/16 07:31:18;;;;;;;;;8.33;6.67;;;;;24.79;43.13;101083.06;5078974;27;46268;-72
2023/07/16 07:33:43;;;;;;;;;6.67;6.67;;;;;24.84;42.78;101079.69;5079431;28;45442;-70
2023/07/16 07:36:09;;;;;;;;;7.33;5.00;;;;;24.67;42.67;101046.03;5078818;28;45238;-70
2023/07/16 07:38:34;;;;;;;;;7.00;7.00;;;;;24.79;43.00;101065.94;5079464;28;45493;-72
2023/07/16 07:41:04;;;;;;;;;8.33;8.33;;;;;24.97;42.22;101074.03;5079397;27;45602;-76
2023/07/16 07:43:29;;;;;;;;;6.00;6.00;;;;;24.97;42.24;101074.03;5078929;28;45466;-70
2023/07/16 07:45:55;;;;;;;;;5.67;4.33;;;;;24.76;41.85;101009.28;5079200;28;45608;-70
2023/07/16 07:48:21;;;;;;;;;9.33;7.00;;;;;25.03;42.12;101056.84;5079211;27;45583;-69
2023/07/16 07:50:47;;;;;;;;;7.33;7.00;;;;;25.11;42.05;101064.66;5060411;28;48611;-71
2023/07/16 07:53:14;;;;;;;;;5.67;5.67;;;;;25.17;41.35;101076.50;5078949;27;45841;-69
2023/07/16 07:55:40;;;;;;;;;8.67;6.33;;;;;25.27;41.11;101073.25;5078741;27;45995;-70
2023/07/16 07:58:05;;;;;;;;;10.33;6.67;;;;;25.34;41.61;101076.69;5078927;28;45489;-74
2023/07/16 08:00:30;;;;;;;;;7.00;6.00;;;;;25.46;40.33;101077.53;5060284;27;55528;-73
2023/07/16 08:02:55;;;;;;;;;7.33;5.67;;;;;25.29;41.88;101050.16;5078843;27;45229;-73
2023/07/16 08:05:21;;;;;;;;;8.25;5.50;;;;;25.43;41.60;101067.97;5078976;27;45279;-70
2023/07/16 08:07:47;;;;;;;;;7.67;6.33;;;;;25.36;40.01;101058.22;5061189;28;45492;-71
2023/07/16 08:10:12;;;;;;;;;5.33;5.33;;;;;25.33;40.03;101055.97;5078569;28;46355;-73
2023/07/16 08:12:38;;;;;;;;;8.33;6.00;;;;;25.40;40.12;101073.00;5078871;28;45321;-71
2023/07/16 08:15:04;;;;;;;;;8.00;7.00;;;;;25.17;39.13;101050.13;5057842;28;45553;-72
2023/07/16 08:17:29;;;;;;;;;8.67;6.33;;;;;25.29;39.80;101082.00;5065825;27;45481;-71
2023/07/16 08:19:54;;;;;;;;;11.00;8.00;;;;;25.29;39.82;101082.00;5072872;28;45553;-76
2023/07/16 08:22:20;;;;;;;;;5.33;5.33;;;;;25.18;39.52;101065.41;5077952;28;45375;-71
2023/07/16 08:24:45;;;;;;;;;5.33;5.33;;;;;25.20;39.38;101061.59;5078898;27;45506;-70
2023/07/16 08:27:11;;;;;;;;;8.33;6.33;;;;;25.15;38.84;101076.75;5060148;28;45329;-74
2023/07/16 08:29:36;;;;;;;;;8.33;6.67;;;;;25.06;39.45;101063.72;5078463;28;46197;-73
2023/07/16 08:32:03;;;;;;;;;5.00;5.00;;;;;25.12;39.49;101071.78;5075926;28;45332;-75
2023/07/16 08:34:28;;;;;;;;;5.00;4.00;;;;;25.32;39.25;101086.97;5075889;28;45400;-74
2023/07/16 08:36:53;;;;;;;;;7.67;5.67;;;;;25.47;38.98;101076.47;5061224;28;45495;-73
2023/07/16 08:39:20;;;;;;;;;5.33;5.00;;;;;25.64;38.70;101080.19;5076935;27;45680;-73
2023/07/16 08:41:46;;;;;;;;;5.00;3.33;;;;;25.74;38.39;101066.00;5073653;28;45356;-71
2023/07/16 08:44:12;;;;;;;;;9.33;8.00;;;;;25.73;38.18;101054.28;5074781;28;45866;-71
2023/07/16 08:46:39;;;;;;;;;6.00;6.00;;;;;25.73;38.22;101062.44;5060336;28;45359;-72
2023/07/16 08:49:06;;;;;;;;;6.67;6.67;;;;;25.92;38.29;101075.94;5076429;28;46591;-72
2023/07/16 08:51:32;;;;;;;;;6.67;6.33;;;;;26.06;37.96;101080.91;5076304;27;45579;-71
2023/07/16 08:53:57;;;;;;;;;7.67;5.33;;;;;26.22;37.46;101071.16;5057668;28;45433;-74
2023/07/16 08:56:23;;;;;;;;;7.33;5.00;;;;;26.14;37.53;101076.16;5075297;27;45375;-73
2023/07/16 08:58:49;;;;;;;;;6.00;5.50;;;;;25.77;37.33;101014.59;5055911;28;47573;-72
2023/07/16 09:01:17;;;;;;;;;5.67;5.67;;;;;26.30;37.41;101095.34;5055110;28;46266;-72
2023/07/16 09:03:42;;;;;;;;;5.67;5.00;;;;;26.33;37.08;101089.41;5074191;27;45474;-70
2023/07/16 09:06:08;;;;;;;;;6.67;5.67;;;;;26.35;36.59;101084.56;5057130;28;45613;-73
2023/07/16 09:08:33;;;;;;;;;6.00;5.33;;;;;26.46;36.51;101080.19;5057237;28;47548;-71
2023/07/16 09:10:58;;;;;;;;;4.33;4.33;;;;;26.45;36.91;101102.22;5076029;27;45375;-72
2023/07/16 09:13:27;;;;;;;;;12.33;7.67;;;;;26.46;36.46;101082.06;5078353;28;45189;-70
2023/07/16 09:15:57;;;;;;;;;3.67;3.00;;;;;26.14;36.76;101063.38;5078218;27;45333;-71
2023/07/16 09:18:25;;;;;;;;;4.00;4.00;;;;;25.89;36.64;101033.66;5059494;28;47542;-72
2023/07/16 09:21:00;;;;;;;;;5.33;3.67;;;;;26.04;36.79;101072.16;5058771;28;45475;-71
2023/07/16 09:23:29;;;;;;;;;5.00;5.00;;;;;26.01;36.90;101082.69;5078207;28;45495;-72
2023/07/16 09:25:55;;;;;;;;;5.67;5.00;;;;;26.02;36.89;101096.06;5059446;28;45612;-72
2023/07/16 09:28:20;;;;;;;;;4.00;4.00;;;;;25.90;35.59;101073.47;5077432;27;46476;-73
2023/07/16 09:30:47;;;;;;;;;3.33;3.33;;;;;25.93;35.82;101077.59;5059226;28;45448;-72
2023/07/16 09:33:21;;;;;;;;;6.67;5.00;;;;;26.03;36.05;101088.75;5077650;28;45279;-71
2023/07/16 09:35:50;;;;;;;;;4.00;3.00;;;;;26.12;36.07;101092.75;5059557;28;45553;-70
2023/07/16 09:38:17;;;;;;;;;6.00;5.00;;;;;26.23;35.79;101078.31;5058816;27;48022;-71
2023/07/16 09:40:42;;;;;;;;;5.00;5.00;;;;;26.18;35.20;101080.88;5058843;28;45291;-73
2023/07/16 09:43:09;;;;;;;;;4.00;4.00;;;;;25.86;34.97;101038.75;5059379;28;45439;-71
2023/07/16 09:45:35;;;;;;;;;5.25;5.25;;;;;26.10;35.51;101089.44;5078025;27;45281;-71
2023/07/16 09:48:02;;;;;;;;;6.33;5.67;;;;;26.04;35.99;101076.78;5077284;27;46551;-71
2023/07/16 09:50:29;;;;;;;;;5.33;5.33;;;;;26.19;35.92;101093.44;5077282;27;45552;-72
2023/07/16 09:52:57;;;;;;;;;6.33;5.00;;;;;26.27;35.78;101090.38;5077051;28;45422;-71
2023/07/16 09:55:23;;;;;;;;;4.00;4.00;;;;;26.17;35.64;101081.97;5059415;28;45313;-71
2023/07/16 09:57:50;;;;;;;;;6.33;4.33;;;;;26.35;36.04;101114.56;5058716;28;47883;-73
2023/07/16 10:00:17;;;;;;;;;5.00;4.00;;;;;26.09;35.00;101044.19;5059055;28;45293;-72
2023/07/16 10:02:44;;;;;;;;;5.00;4.00;;;;;26.19;35.16;101060.75;5077393;28;45375;-72
2023/07/16 10:05:19;;;;;;;;;4.00;4.00;;;;;26.27;35.64;101098.56;5077497;27;45421;-72
2023/07/16 10:07:58;;;;;;;;;6.33;6.33;;;;;26.29;36.17;101085.50;5077000;28;45597;-71
2023/07/16 10:10:26;;;;;;;;;3.33;3.33;;;;;26.29;35.70;101093.69;5077093;28;45367;-70
2023/07/16 10:13:02;;;;;;;;;6.33;6.33;;;;;26.18;35.76;101094.50;5077316;28;45355;-71
2023/07/16 10:15:29;;;;;;;;;9.00;6.00;;;;;26.23;35.37;101085.63;5077377;28;45530;-73
2023/07/16 10:17:55;;;;;;;;;8.33;5.33;;;;;26.20;35.58;101086.09;5058576;28;47734;-72
2023/07/16 10:20:36;;;;;;;;;5.00;5.00;;;;;26.13;35.76;101072.59;5076778;28;45292;-70
2023/07/16 10:23:13;;;;;;;;;5.00;5.00;;;;;26.13;34.47;101072.59;5058303;28;45321;-70
2023/07/16 10:25:39;;;;;;;;;6.00;4.33;;;;;26.16;34.24;101083.03;5058806;28;45617;-71
2023/07/16 10:28:04;;;;;;;;;6.00;5.00;;;;;25.86;34.35;101023.25;5058589;28;47434;-71
2023/07/16 10:30:31;;;;;;;;;4.33;4.33;;;;;26.02;34.44;101077.00;5076814;28;45405;-72
2023/07/16 10:32:56;;;;;;;;;5.00;5.00;;;;;26.01;35.12;101069.06;5077304;27;45277;-72
2023/07/16 10:35:22;;;;;;;;;4.00;3.00;;;;;25.98;34.63;101066.81;5080739;27;45303;-72
2023/07/16 10:37:47;;;;;;;;;8.67;4.33;;;;;25.96;34.74;101066.22;5082560;28;46844;-71
2023/07/16 10:40:14;;;;;;;;;5.67;3.00;;;;;25.80;34.44;101047.88;5080062;28;45215;-73
2023/07/16 10:42:43;;;;;;;;;4.00;4.00;;;;;25.82;34.63;101053.91;5080318;27;45368;-72
2023/07/16 10:45:10;;;;;;;;;5.00;4.00;;;;;25.73;34.56;101057.00;5062288;27;45533;-72
2023/07/16 10:47:50;;;;;;;;;6.00;5.67;;;;;25.71;34.93;101067.28;5080057;27;46617;-72
2023/07/16 10:50:15;;;;;;;;;3.33;3.33;;;;;25.69;35.19;101066.72;5061755;28;45277;-73
2023/07/16 10:52:41;;;;;;;;;3.33;2.67;;;;;25.54;33.26;101027.34;5061889;28;45376;-72
2023/07/16 10:55:06;;;;;;;;;2.33;1.33;;;;;25.51;33.61;101057.78;5080348;27;45657;-73
2023/07/16 10:57:32;;;;;;;;;5.00;3.33;;;;;25.21;33.89;100997.97;5061294;27;48139;-72
2023/07/16 10:59:58;;;;;;;;;2.00;2.00;;;;;25.56;34.04;101055.16;5061820;28;45428;-71
2023/07/16 11:02:25;;;;;;;;;3.00;3.00;;;;;25.50;34.42;101062.41;5061997;28;45759;-72
2023/07/16 11:04:54;;;;;;;;;3.67;3.67;;;;;25.48;34.61;101067.25;5080532;28;45321;-71
2023/07/16 11:07:21;;;;;;;;;3.00;2.00;;;;;25.50;34.30;101056.94;5080057;28;46445;-72
2023/07/16 11:09:48;;;;;;;;;4.67;3.67;;;;;25.54;33.90;101058.13;5081231;27;45913;-73
2023/07/16 11:12:31;;;;;;;;;4.67;3.00;;;;;25.51;34.05;101053.16;5080148;28;45431;-72
2023/07/16 11:14:57;;;;;;;;;5.67;4.00;;;;;25.58;34.54;101058.47;5079980;28;45429;-73
2023/07/16 11:17:24;;;;;;;;;3.00;3.00;;;;;25.44;34.54;101031.50;5061053;28;48070;-71
2023/07/16 11:19:51;;;;;;;;;3.67;2.67;;;;;25.51;33.77;101055.88;5079548;28;45305;-72